Naracoorte, Australia
Current Conditions -  °F | °C
As of 4:00 PM on Wednesday 26 Nov 2014 (Local Time) from YMTG Reporting Station
Overcast Overcast  
Wind Chill: 64°   Ceiling: 3900
Heat Index: 64°   Visibility: 6mi
Dew Point: 48°   Wind: 17mph
Humidity: 56%   Direction: 200°SSW
Pressure: 30.21"   Gusts: NA
Location:  36.96°S, 140.74°E
Report Text: YMTG 260600Z AUTO 20015KT 9999 // SCT031 BKN039 OVC050 18/09 Q1023
Loading
Personal Weather Stations






























Interactive Weather Map New forecast layout! Learn more

10-Day Weather Forecast

Advertisements
Track Severe Weather on mobile